Airfield :
LOGIN :

Register | Disclaimer

   EN    FR    IT 

 










Legend :    VFR   Marginal VFR   IFR   Intensive IFR   Very Intensive IFR
Visi :
Ceiling :
>= 8 km
>= 3000ft
5 to 8 km
1000 to 3000 ft
1500m to 5 km
500 to 1000 ft
800 to 1500m
200 to 500 ft
< 800m
< 200 ft
Symbols :   Thunderstorms  Fog  Heavy snow  Heavy precipitations  Wind > 20 kt
SIGMETs :     Misc.  Thunderstorms  Icing  Turbulence  Mountain Waves  Volcanic Ashes







- Airport Elevation : 779 ft
- IATA code : CMF
- Download approach charts


LFLB - Chambery / Aix-Les-Bains

CURRENT METAR :
  • 200730Z AUTO 23004KT 190V270 9999 ///TCU 18/16 Q1016 TEMPO SHRA

EXPIRED METARs :
  • 200700Z AUTO VRB03KT 9999 FEW037/// BKN090/// OVC110/// ///TCU 17/15 Q1016 TEMPO SHRA
  • 200630Z AUTO VRB02KT 9999 OVC088/// ///TCU 17/16 Q1016 TEMPO SHRA
  • 200600Z AUTO VRB03KT 9999 FEW038/// OVC094/// ///CB 17/16 Q1015 TEMPO VRB15G25KT 3000 TSRA
  • 200530Z AUTO VRB02KT 9999 -RA FEW037/// SCT066/// OVC098/// ///TCU 16/15 Q1016 TEMPO VRB15G25KT 3000 TSRA BKN060CB
  • 200500Z AUTO VRB01KT 9999 FEW072/// OVC100/// ///CB 16/15 Q1015 TEMPO VRB15G25KT 3000 TSRA
  • 200430Z AUTO VRB03KT 9999 TS FEW062/// OVC100/// ///CB 16/14 Q1014 TEMPO VRB15G25KT 3000 TSRA

TAF TAF LFLB
Valid from the 20 at 06:00 until the 21 at 06:00 UTC


200500Z 2006/2106 18005KT CAVOK
PROB30
TEMPO 2006/2007 VRB15G25KT 3000 TSRA BKN060CB
BECMG 2006/2009 36005KT
TEMPO 2006/2024 SHRA BKN080TCU
PROB30
TEMPO 2012/2016 4000 TSRA BKN060CB
No reported NOTAMs for that airfield.
2 SIGMETs reported for the Marseille FIR (LFMM) :
 
SIGMET 2  cancelation
LFMM SIGMET 3 VALID 200705/200800 LFPW
LFMM MARSEILLE FIR/UIR CNL SIGMET 2 200600/200800=
SIGMET 2  CANCELED :
Embedded thunderstorms
LFMM SIGMET 2 VALID 200600/200800 LFPW
LFMM MARSEILLE FIR/UIR EMBD TS OBS WI N4500 E00445 - N4615 E00600 - N4600 E00645 - N4430 E00530 - N4500 E00445 TOP FL320 MOV NE 20KT NC=



MET'MAP, your aeronautical weather chart ! - Copyright ORBIFLY December 2007 - Disclaimer

ORBIFLY MET'MAP TEAM :

Programming & Development : Alexandra Zaïnal
Concept & Development : Baudouin d'Aumeries
Co-Development & Prog : Marc-Olivier Méhu
Technical & hardware support : Manuel Goepfert

Contact : metmap@orbifly.com




SOURCES & CREDITS :

   NOAA